Time;durP1;ratioP1;P1;durP2;ratioP2;P2;SDS_P1;SDS_P2;PMS_P1;PMS_P2;Temp;Humidity;BMP_temperature;BMP_pressure;BME280_temperature;BME280_humidity;BME280_pressure;Samples;Min_cycle;Max_cycle;Signal;HPM_P1;HPM_P2
2022/05/17 00:03:11;;;;;;;9.68;8.15;;;;;;;;;;10383023;28;20877;-83
2022/05/17 00:08:14;;;;;;;9.20;8.30;;;;;;;;;;10373661;28;20805;-83
2022/05/17 00:13:17;;;;;;;10.32;8.70;;;;;;;;;;10375861;28;20407;-82
2022/05/17 00:18:21;;;;;;;11.57;8.77;;;;;;;;;;10378543;28;20405;-83
2022/05/17 00:23:22;;;;;;;14.18;9.05;;;;;;;;;;10377046;28;20888;-83
2022/05/17 00:28:26;;;;;;;9.57;8.65;;;;;;;;;;10378275;28;20518;-83
2022/05/17 00:33:28;;;;;;;11.30;8.80;;;;;;;;;;10386231;28;20475;-83
2022/05/17 00:38:30;;;;;;;10.68;9.07;;;;;;;;;;10389229;28;20413;-83
2022/05/17 00:48:54;;;;;;;13.27;10.27;;;;;;;;;;10394732;28;20423;-83
2022/05/17 00:54:07;;;;;;;11.57;10.38;;;;;;;;;;10391779;28;20918;-82
2022/05/17 00:59:12;;;;;;;12.20;9.63;;;;;;;;;;10386548;28;21020;-83
2022/05/17 01:04:17;;;;;;;10.32;9.15;;;;;;;;;;10388302;28;20760;-83
2022/05/17 01:09:21;;;;;;;11.38;9.88;;;;;;;;;;10386537;28;20449;-82
2022/05/17 01:19:45;;;;;;;11.07;9.33;;;;;;;;;;10387250;28;20494;-83
2022/05/17 01:24:49;;;;;;;10.20;8.88;;;;;;;;;;10385732;28;20405;-83
2022/05/17 01:29:51;;;;;;;11.27;9.10;;;;;;;;;;10384907;28;20520;-83
2022/05/17 01:34:53;;;;;;;11.82;9.30;;;;;;;;;;10385262;28;20440;-83
2022/05/17 01:39:56;;;;;;;8.35;7.55;;;;;;;;;;10383230;28;20436;-83
2022/05/17 01:44:58;;;;;;;8.43;7.53;;;;;;;;;;10384145;28;20423;-83
2022/05/17 01:50:00;;;;;;;8.77;7.65;;;;;;;;;;10384182;28;20911;-83
2022/05/17 01:55:04;;;;;;;9.75;8.40;;;;;;;;;;10384424;28;20497;-83
2022/05/17 02:00:10;;;;;;;9.25;7.93;;;;;;;;;;10384394;28;20417;-84
2022/05/17 02:05:12;;;;;;;8.43;7.53;;;;;;;;;;10400684;28;20401;-83
2022/05/17 02:10:15;;;;;;;8.88;7.70;;;;;;;;;;10403820;28;20861;-83
2022/05/17 02:15:17;;;;;;;11.10;8.53;;;;;;;;;;10405835;28;20484;-83
2022/05/17 02:20:19;;;;;;;9.95;8.50;;;;;;;;;;10405531;28;20485;-84
2022/05/17 02:25:22;;;;;;;10.13;7.72;;;;;;;;;;10404127;28;20441;-83
2022/05/17 02:30:24;;;;;;;8.95;8.05;;;;;;;;;;10404849;28;20425;-82
2022/05/17 02:35:26;;;;;;;9.00;8.07;;;;;;;;;;10404966;28;20480;-83
2022/05/17 02:40:29;;;;;;;11.80;8.33;;;;;;;;;;10402794;28;20497;-81
2022/05/17 02:45:32;;;;;;;11.83;8.40;;;;;;;;;;10404556;28;20570;-83
2022/05/17 02:50:35;;;;;;;11.05;8.32;;;;;;;;;;10403839;28;20424;-83
2022/05/17 02:55:39;;;;;;;8.85;7.63;;;;;;;;;;10401879;28;20405;-84
2022/05/17 03:00:42;;;;;;;8.13;7.15;;;;;;;;;;10400270;28;20412;-83
2022/05/17 03:05:43;;;;;;;8.27;7.10;;;;;;;;;;10402297;28;20394;-83
2022/05/17 03:10:46;;;;;;;7.83;6.93;;;;;;;;;;10403324;28;20516;-83
2022/05/17 03:15:51;;;;;;;9.32;7.07;;;;;;;;;;10403030;28;20402;-83
2022/05/17 03:20:53;;;;;;;8.30;7.25;;;;;;;;;;10400490;28;20410;-84
2022/05/17 03:25:56;;;;;;;11.23;6.93;;;;;;;;;;10387428;28;20826;-84
2022/05/17 03:30:58;;;;;;;9.90;7.32;;;;;;;;;;10402713;28;20456;-83
2022/05/17 03:35:59;;;;;;;7.80;6.78;;;;;;;;;;10402770;28;20408;-83
2022/05/17 03:41:03;;;;;;;7.60;6.90;;;;;;;;;;10401498;28;20406;-84
2022/05/17 03:46:08;;;;;;;9.40;7.03;;;;;;;;;;10402722;28;20482;-84
2022/05/17 03:51:14;;;;;;;11.32;7.38;;;;;;;;;;10401286;28;20402;-83
2022/05/17 03:56:17;;;;;;;8.32;7.05;;;;;;;;;;10401128;28;20408;-83
2022/05/17 04:01:19;;;;;;;10.47;7.30;;;;;;;;;;10401764;28;20393;-83
2022/05/17 04:06:21;;;;;;;10.85;7.68;;;;;;;;;;10389702;28;21149;-83
2022/05/17 04:11:24;;;;;;;8.55;7.53;;;;;;;;;;10375580;28;20490;-84
2022/05/17 04:16:30;;;;;;;8.75;7.60;;;;;;;;;;10381457;28;20410;-83
2022/05/17 04:21:33;;;;;;;9.27;7.40;;;;;;;;;;10379073;28;20406;-83
2022/05/17 04:26:36;;;;;;;9.95;7.57;;;;;;;;;;10378327;28;20423;-84
2022/05/17 04:31:38;;;;;;;10.35;7.90;;;;;;;;;;10382848;28;20884;-83
2022/05/17 04:36:40;;;;;;;10.43;7.40;;;;;;;;;;10380879;28;20403;-84
2022/05/17 04:41:43;;;;;;;9.98;8.00;;;;;;;;;;10386481;28;20487;-83
2022/05/17 04:46:45;;;;;;;11.27;8.15;;;;;;;;;;10394975;28;20409;-84
2022/05/17 04:51:51;;;;;;;10.23;7.70;;;;;;;;;;10393803;28;20409;-84
2022/05/17 04:56:55;;;;;;;9.98;7.45;;;;;;;;;;10424805;28;20511;-84
2022/05/17 05:01:57;;;;;;;10.95;7.90;;;;;;;;;;10439694;28;20407;-83
2022/05/17 05:06:59;;;;;;;10.13;7.95;;;;;;;;;;10435586;28;20916;-81
2022/05/17 05:12:03;;;;;;;10.75;7.80;;;;;;;;;;10439766;28;20506;-83
2022/05/17 05:17:05;;;;;;;10.30;7.60;;;;;;;;;;10437725;28;20419;-82
2022/05/17 05:22:07;;;;;;;10.55;8.27;;;;;;;;;;10439344;28;20435;-83
2022/05/17 05:27:10;;;;;;;11.40;8.47;;;;;;;;;;10443304;28;20489;-83
2022/05/17 05:32:12;;;;;;;10.25;8.32;;;;;;;;;;10443899;28;20400;-81
2022/05/17 05:37:14;;;;;;;11.55;8.45;;;;;;;;;;10444696;28;20405;-83
2022/05/17 05:42:17;;;;;;;12.17;8.43;;;;;;;;;;10439719;28;20520;-84
2022/05/17 05:47:19;;;;;;;9.93;8.50;;;;;;;;;;10434537;28;20412;-84
2022/05/17 05:52:21;;;;;;;10.30;8.57;;;;;;;;;;10438021;28;20418;-83
2022/05/17 05:57:24;;;;;;;8.70;7.00;;;;;;;;;;10388149;28;20719;-84
2022/05/17 06:02:26;;;;;;;9.02;8.13;;;;;;;;;;10379229;28;20404;-82
2022/05/17 06:07:28;;;;;;;10.47;7.93;;;;;;;;;;10384006;28;20421;-82
2022/05/17 06:12:31;;;;;;;7.30;6.60;;;;;;;;;;10385631;28;20481;-83
2022/05/17 06:17:33;;;;;;;8.15;6.40;;;;;;;;;;10378165;28;20399;-84
2022/05/17 06:22:35;;;;;;;7.53;6.43;;;;;;;;;;10382790;28;20492;-83
2022/05/17 06:27:38;;;;;;;8.47;6.67;;;;;;;;;;10383422;28;20551;-82
2022/05/17 06:32:40;;;;;;;7.20;6.50;;;;;;;;;;10373122;28;20429;-83
2022/05/17 06:37:43;;;;;;;7.00;6.20;;;;;;;;;;10379994;28;20414;-83
2022/05/17 06:42:46;;;;;;;9.15;7.20;;;;;;;;;;10383470;28;20399;-84
2022/05/17 06:47:48;;;;;;;9.02;7.13;;;;;;;;;;10385214;28;20430;-84
2022/05/17 06:52:50;;;;;;;10.40;8.40;;;;;;;;;;10381301;28;20396;-84
2022/05/17 06:57:53;;;;;;;10.27;7.55;;;;;;;;;;10381749;28;20782;-82
2022/05/17 07:02:55;;;;;;;9.17;7.93;;;;;;;;;;10381634;28;20406;-84
2022/05/17 07:08:01;;;;;;;11.57;7.87;;;;;;;;;;10381845;28;20510;-84
2022/05/17 07:13:12;;;;;;;8.98;7.30;;;;;;;;;;10381525;28;20418;-83
2022/05/17 07:18:17;;;;;;;10.52;8.27;;;;;;;;;;10380853;28;20766;-84
2022/05/17 07:23:21;;;;;;;11.93;7.10;;;;;;;;;;10377810;28;20702;-83
2022/05/17 07:28:25;;;;;;;8.30;6.57;;;;;;;;;;10388604;28;20429;-84
2022/05/17 07:33:27;;;;;;;8.45;6.13;;;;;;;;;;10385595;28;20481;-84
2022/05/17 07:38:30;;;;;;;7.03;5.80;;;;;;;;;;10377797;28;20918;-83
2022/05/17 07:43:34;;;;;;;7.43;5.68;;;;;;;;;;10380110;28;20417;-84
2022/05/17 07:48:36;;;;;;;9.57;5.30;;;;;;;;;;10379562;28;20757;-84
2022/05/17 07:53:37;;;;;;;7.93;5.22;;;;;;;;;;10375131;28;20425;-84
2022/05/17 07:58:41;;;;;;;7.13;4.63;;;;;;;;;;10447168;22;20769;-83
2022/05/17 08:03:43;;;;;;;6.85;4.75;;;;;;;;;;10516741;28;20401;-83
2022/05/17 08:08:45;;;;;;;6.32;5.00;;;;;;;;;;10521637;28;20892;-83
2022/05/17 08:13:48;;;;;;;7.13;4.55;;;;;;;;;;10523635;28;20489;-83
2022/05/17 08:18:50;;;;;;;5.57;4.70;;;;;;;;;;10513068;28;20908;-84
2022/05/17 08:23:52;;;;;;;6.57;3.97;;;;;;;;;;10517720;28;20404;-83
2022/05/17 08:28:56;;;;;;;5.00;3.80;;;;;;;;;;10518788;28;20495;-82
2022/05/17 08:33:59;;;;;;;4.50;3.80;;;;;;;;;;10517657;28;20756;-82
2022/05/17 08:39:00;;;;;;;6.78;4.10;;;;;;;;;;10517155;28;20404;-83
2022/05/17 08:44:08;;;;;;;4.63;4.05;;;;;;;;;;10522239;28;20400;-83
2022/05/17 08:49:19;;;;;;;6.32;4.57;;;;;;;;;;10522068;28;20506;-83
2022/05/17 08:54:25;;;;;;;5.32;4.70;;;;;;;;;;10529268;28;20408;-83
2022/05/17 08:59:28;;;;;;;5.90;4.93;;;;;;;;;;10517060;28;20483;-84
2022/05/17 09:05:01;;;;;;;6.77;5.07;;;;;;;;;;10507593;28;20404;-83
2022/05/17 09:10:06;;;;;;;5.80;5.22;;;;;;;;;;10502113;28;20421;-82
2022/05/17 09:15:11;;;;;;;6.63;4.60;;;;;;;;;;10494257;28;20388;-84
2022/05/17 09:20:16;;;;;;;6.93;5.38;;;;;;;;;;10508131;28;20878;-83
2022/05/17 09:25:22;;;;;;;7.07;5.70;;;;;;;;;;10505761;28;20408;-83
2022/05/17 09:30:36;;;;;;;8.00;6.07;;;;;;;;;;10503933;28;20420;-83
2022/05/17 09:35:44;;;;;;;7.45;6.10;;;;;;;;;;10505506;28;20477;-83
2022/05/17 09:40:49;;;;;;;8.53;6.70;;;;;;;;;;10503404;28;20400;-85
2022/05/17 09:45:55;;;;;;;8.47;6.70;;;;;;;;;;10502836;28;20392;-84
2022/05/17 09:56:17;;;;;;;7.28;5.93;;;;;;;;;;10447788;28;20395;-83
2022/05/17 10:01:26;;;;;;;9.40;7.07;;;;;;;;;;10456099;28;20471;-84
2022/05/17 10:06:34;;;;;;;7.63;6.80;;;;;;;;;;10459227;28;20404;-84
2022/05/17 10:11:46;;;;;;;7.75;6.40;;;;;;;;;;10458658;28;20792;-84
2022/05/17 10:16:52;;;;;;;10.27;6.00;;;;;;;;;;10460998;28;20470;-83
2022/05/17 10:22:02;;;;;;;6.82;5.45;;;;;;;;;;10460434;28;20830;-83
2022/05/17 10:27:11;;;;;;;9.35;7.10;;;;;;;;;;10461847;28;21275;-84
2022/05/17 10:32:21;;;;;;;7.28;6.40;;;;;;;;;;10459628;28;20988;-84
2022/05/17 10:37:27;;;;;;;8.80;7.90;;;;;;;;;;10460775;28;20408;-84
2022/05/17 10:42:29;;;;;;;7.90;6.60;;;;;;;;;;10459963;28;20428;-84
2022/05/17 10:47:47;;;;;;;10.57;8.30;;;;;;;;;;10459549;28;20513;-83
2022/05/17 10:52:59;;;;;;;11.27;8.83;;;;;;;;;;10458761;28;21922;-85
2022/05/17 10:58:10;;;;;;;10.63;8.80;;;;;;;;;;10457940;28;20408;-84
2022/05/17 11:03:44;;;;;;;11.03;6.90;;;;;;;;;;10459056;28;21348;-84
2022/05/17 11:08:56;;;;;;;7.10;6.25;;;;;;;;;;10457127;28;20432;-84
2022/05/17 11:14:03;;;;;;;11.27;8.05;;;;;;;;;;10483665;28;20423;-83
2022/05/17 11:19:11;;;;;;;11.10;8.77;;;;;;;;;;10483402;28;20438;-85
2022/05/17 11:24:27;;;;;;;7.97;6.73;;;;;;;;;;10480088;28;21371;-84
2022/05/17 11:30:04;;;;;;;9.05;6.70;;;;;;;;;;10480979;28;20614;-84
2022/05/17 11:35:40;;;;;;;9.88;7.95;;;;;;;;;;10485978;28;20432;-85
2022/05/17 11:40:58;;;;;;;9.80;7.33;;;;;;;;;;10487175;28;20424;-84
2022/05/17 11:46:03;;;;;;;10.20;7.97;;;;;;;;;;10484781;28;20412;-84
2022/05/17 11:51:05;;;;;;;11.00;7.13;;;;;;;;;;10481618;28;20781;-84
2022/05/17 11:56:36;;;;;;;11.50;8.40;;;;;;;;;;10480958;28;20416;-84
2022/05/17 12:01:46;;;;;;;9.38;8.15;;;;;;;;;;10482863;28;20653;-84
2022/05/17 12:07:08;;;;;;;7.63;6.53;;;;;;;;;;10487484;28;20410;-83
2022/05/17 12:12:42;;;;;;;8.98;7.00;;;;;;;;;;10487661;28;20443;-84
2022/05/17 12:18:00;;;;;;;9.03;6.73;;;;;;;;;;10489475;28;21868;-84
2022/05/17 12:23:07;;;;;;;9.37;6.77;;;;;;;;;;10486221;28;20452;-83
2022/05/17 12:28:11;;;;;;;10.23;6.53;;;;;;;;;;10496179;28;20518;-83
2022/05/17 12:33:20;;;;;;;9.03;7.30;;;;;;;;;;10499902;28;20400;-85
2022/05/17 12:43:50;;;;;;;8.23;6.38;;;;;;;;;;10451572;28;20953;-84
2022/05/17 12:48:55;;;;;;;7.68;6.18;;;;;;;;;;10490606;28;20420;-84
2022/05/17 12:54:03;;;;;;;7.70;5.60;;;;;;;;;;10493690;28;20412;-85
2022/05/17 12:59:08;;;;;;;6.00;5.45;;;;;;;;;;10495576;28;20418;-84
2022/05/17 13:04:14;;;;;;;8.25;5.70;;;;;;;;;;10494457;28;20499;-83
2022/05/17 13:09:18;;;;;;;7.45;5.20;;;;;;;;;;10493136;28;20458;-83
2022/05/17 13:14:22;;;;;;;5.95;5.03;;;;;;;;;;10495986;28;20403;-84
2022/05/17 13:19:28;;;;;;;6.07;4.78;;;;;;;;;;10491453;28;20411;-84
2022/05/17 13:24:41;;;;;;;5.20;4.70;;;;;;;;;;10493531;28;20491;-84
2022/05/17 13:29:43;;;;;;;5.20;4.70;;;;;;;;;;10493310;28;20420;-84
2022/05/17 13:34:47;;;;;;;4.57;4.13;;;;;;;;;;10488818;28;20768;-84
2022/05/17 13:39:50;;;;;;;5.90;4.00;;;;;;;;;;10492082;28;20793;-84
2022/05/17 13:44:55;;;;;;;5.55;3.63;;;;;;;;;;10493344;28;20465;-84
2022/05/17 13:50:00;;;;;;;5.07;4.40;;;;;;;;;;10495803;28;20497;-84
2022/05/17 13:55:07;;;;;;;6.00;3.50;;;;;;;;;;10495079;28;20396;-84
2022/05/17 14:00:21;;;;;;;4.20;3.67;;;;;;;;;;10489500;28;20975;-84
2022/05/17 14:05:27;;;;;;;7.13;4.50;;;;;;;;;;10493314;28;20412;-85
2022/05/17 14:15:56;;;;;;;6.07;4.47;;;;;;;;;;10489826;28;20845;-84
2022/05/17 14:21:00;;;;;;;6.67;4.23;;;;;;;;;;10489731;28;20546;-84
2022/05/17 14:26:01;;;;;;;5.47;4.40;;;;;;;;;;10494880;28;20408;-85
2022/05/17 14:31:06;;;;;;;5.93;4.43;;;;;;;;;;10493772;28;20424;-84
2022/05/17 14:36:15;;;;;;;5.35;4.25;;;;;;;;;;10492938;28;20432;-84
2022/05/17 14:41:17;;;;;;;6.33;4.47;;;;;;;;;;10491489;28;20910;-84
2022/05/17 14:46:19;;;;;;;7.03;4.32;;;;;;;;;;10493705;28;20416;-85
2022/05/17 14:51:25;;;;;;;6.03;4.88;;;;;;;;;;10489319;28;20416;-83
2022/05/17 14:56:27;;;;;;;6.03;5.10;;;;;;;;;;10489375;28;21122;-84
2022/05/17 15:01:29;;;;;;;5.47;4.80;;;;;;;;;;10492766;28;20408;-83
2022/05/17 15:06:48;;;;;;;7.00;5.50;;;;;;;;;;10488486;28;20416;-85
2022/05/17 15:11:50;;;;;;;8.80;5.53;;;;;;;;;;10486144;28;20543;-85
2022/05/17 15:16:52;;;;;;;5.57;5.00;;;;;;;;;;10488040;28;20416;-84
2022/05/17 15:21:56;;;;;;;5.93;5.27;;;;;;;;;;10488907;28;20400;-85
2022/05/17 15:26:59;;;;;;;8.13;6.00;;;;;;;;;;10489901;28;20772;-85
2022/05/17 15:32:04;;;;;;;6.90;5.65;;;;;;;;;;10489777;28;20913;-85
2022/05/17 15:37:08;;;;;;;6.55;5.10;;;;;;;;;;10491013;28;20412;-85
2022/05/17 15:42:09;;;;;;;5.90;5.30;;;;;;;;;;10486706;28;20749;-84
2022/05/17 15:57:55;;;;;;;6.97;5.38;;;;;;;;;;10484570;28;20385;-83
2022/05/17 16:02:57;;;;;;;6.30;5.10;;;;;;;;;;10485119;28;20412;-86
2022/05/17 16:08:05;;;;;;;6.47;5.10;;;;;;;;;;10484905;28;21257;-84
2022/05/17 16:13:09;;;;;;;5.93;5.32;;;;;;;;;;10479785;28;20499;-83
2022/05/17 16:18:15;;;;;;;6.85;5.38;;;;;;;;;;10513648;28;20456;-85
2022/05/17 16:23:20;;;;;;;9.70;6.32;;;;;;;;;;10521862;28;21103;-85
2022/05/17 16:28:22;;;;;;;7.25;6.10;;;;;;;;;;10520518;28;20405;-85
2022/05/17 16:33:24;;;;;;;7.68;6.00;;;;;;;;;;10518305;28;20412;-85
2022/05/17 16:38:27;;;;;;;8.07;6.20;;;;;;;;;;10515504;28;20415;-84
2022/05/17 16:43:29;;;;;;;7.40;5.30;;;;;;;;;;10518348;28;20404;-83
2022/05/17 16:48:32;;;;;;;9.13;6.30;;;;;;;;;;10515018;28;20546;-84
2022/05/17 16:53:35;;;;;;;6.97;6.27;;;;;;;;;;10516522;28;20799;-86
2022/05/17 16:58:37;;;;;;;6.53;5.88;;;;;;;;;;10518758;28;20404;-87
2022/05/17 17:03:39;;;;;;;8.48;6.10;;;;;;;;;;10520425;28;20821;-87
2022/05/17 17:08:42;;;;;;;7.45;6.38;;;;;;;;;;10513949;28;20469;-86
2022/05/17 17:13:44;;;;;;;6.95;6.20;;;;;;;;;;10527866;28;20912;-86
2022/05/17 17:18:46;;;;;;;7.43;6.23;;;;;;;;;;10527528;28;20412;-86
2022/05/17 17:23:49;;;;;;;7.55;6.07;;;;;;;;;;10524645;28;20415;-86
2022/05/17 17:28:51;;;;;;;7.95;6.22;;;;;;;;;;10526192;28;20506;-86
2022/05/17 17:39:14;;;;;;;8.55;6.60;;;;;;;;;;10517795;28;20400;-85
2022/05/17 17:44:17;;;;;;;7.60;6.32;;;;;;;;;;10525725;28;20397;-85
2022/05/17 17:49:19;;;;;;;7.10;6.40;;;;;;;;;;10523630;28;20451;-84
2022/05/17 17:54:23;;;;;;;8.80;6.40;;;;;;;;;;10520736;28;20404;-85
2022/05/17 17:59:25;;;;;;;7.87;7.07;;;;;;;;;;10519977;28;20411;-84
2022/05/17 18:04:28;;;;;;;7.93;7.10;;;;;;;;;;10525381;28;20846;-85
2022/05/17 18:09:31;;;;;;;8.18;7.10;;;;;;;;;;10525935;28;20416;-84
2022/05/17 18:14:36;;;;;;;9.25;7.00;;;;;;;;;;10522900;28;20411;-84
2022/05/17 18:19:38;;;;;;;10.60;7.10;;;;;;;;;;10527087;28;20424;-83
2022/05/17 18:24:42;;;;;;;8.98;7.47;;;;;;;;;;10521213;28;20426;-84
2022/05/17 18:29:47;;;;;;;8.40;7.55;;;;;;;;;;10526827;28;20505;-84
2022/05/17 18:34:54;;;;;;;8.77;7.40;;;;;;;;;;10526412;28;20412;-83
2022/05/17 18:39:58;;;;;;;9.60;7.73;;;;;;;;;;10523834;28;20416;-84
2022/05/17 18:45:01;;;;;;;9.10;6.93;;;;;;;;;;10525229;28;20410;-84
2022/05/17 18:50:05;;;;;;;8.25;6.88;;;;;;;;;;10519522;28;20408;-83
2022/05/17 18:55:11;;;;;;;10.80;7.40;;;;;;;;;;10516165;28;20760;-83
2022/05/17 19:00:20;;;;;;;9.02;7.13;;;;;;;;;;10506735;28;20508;-83
2022/05/17 19:05:26;;;;;;;9.17;7.33;;;;;;;;;;10498946;28;20428;-84
2022/05/17 19:15:48;;;;;;;9.10;8.20;;;;;;;;;;10500402;28;20792;-83
2022/05/17 19:20:50;;;;;;;9.85;8.20;;;;;;;;;;10500232;28;20890;-84
2022/05/17 19:25:53;;;;;;;9.38;7.85;;;;;;;;;;10487053;28;20410;-83
2022/05/17 19:30:55;;;;;;;8.73;7.82;;;;;;;;;;10498181;28;20426;-83
2022/05/17 19:35:57;;;;;;;8.73;7.68;;;;;;;;;;10494324;28;20412;-82
2022/05/17 19:41:00;;;;;;;9.63;7.35;;;;;;;;;;10479484;28;20516;-82
2022/05/17 19:46:02;;;;;;;9.02;6.78;;;;;;;;;;10476284;28;20418;-82
2022/05/17 19:51:04;;;;;;;7.53;6.10;;;;;;;;;;10482122;28;20923;-83
2022/05/17 19:56:08;;;;;;;6.47;5.53;;;;;;;;;;10473955;28;21000;-82
2022/05/17 20:01:10;;;;;;;6.80;5.63;;;;;;;;;;10505504;28;20957;-83
2022/05/17 20:06:12;;;;;;;8.13;5.80;;;;;;;;;;10397323;22;1993792;-82
2022/05/17 20:11:16;;;;;;;5.83;5.23;;;;;;;;;;10454890;28;20506;-81
2022/05/17 20:16:17;;;;;;;10.35;5.43;;;;;;;;;;10460165;28;20505;-84
2022/05/17 20:21:23;;;;;;;8.18;5.50;;;;;;;;;;10453002;28;20764;-84
2022/05/17 20:26:26;;;;;;;8.50;5.93;;;;;;;;;;10445384;28;20750;-84
2022/05/17 20:31:28;;;;;;;7.07;5.67;;;;;;;;;;10444567;28;20422;-84
2022/05/17 20:36:30;;;;;;;10.77;7.60;;;;;;;;;;10444170;28;20467;-83
2022/05/17 20:41:34;;;;;;;11.90;9.23;;;;;;;;;;10448927;28;20518;-84
2022/05/17 20:51:55;;;;;;;13.43;10.40;;;;;;;;;;10454802;28;20415;-84
2022/05/17 20:57:02;;;;;;;15.77;11.50;;;;;;;;;;10455706;28;20892;-84
2022/05/17 21:02:05;;;;;;;13.75;12.30;;;;;;;;;;10450881;28;20403;-85
2022/05/17 21:07:06;;;;;;;15.50;13.50;;;;;;;;;;10459466;28;20420;-83
2022/05/17 21:12:11;;;;;;;17.67;14.20;;;;;;;;;;10458019;28;20423;-84
2022/05/17 21:17:13;;;;;;;17.50;15.60;;;;;;;;;;10460758;28;20779;-84
2022/05/17 21:22:15;;;;;;;18.33;15.25;;;;;;;;;;10452825;28;20842;-84
2022/05/17 21:27:23;;;;;;;17.25;14.52;;;;;;;;;;10451996;28;20415;-85
2022/05/17 21:32:24;;;;;;;16.83;15.03;;;;;;;;;;10465757;28;20939;-84
2022/05/17 21:37:26;;;;;;;19.83;16.30;;;;;;;;;;10465428;28;20505;-84
2022/05/17 21:42:30;;;;;;;19.63;15.40;;;;;;;;;;10461665;28;20427;-85
2022/05/17 21:47:35;;;;;;;22.42;17.52;;;;;;;;;;10468240;28;20406;-83
2022/05/17 21:52:37;;;;;;;24.80;19.95;;;;;;;;;;10459014;28;20415;-84
2022/05/17 21:57:41;;;;;;;23.25;19.88;;;;;;;;;;10458571;28;20394;-82
2022/05/17 22:02:44;;;;;;;24.67;21.50;;;;;;;;;;10455224;28;20418;-83
2022/05/17 22:07:45;;;;;;;23.00;20.50;;;;;;;;;;10453549;28;20491;-83
2022/05/17 22:18:08;;;;;;;24.65;21.40;;;;;;;;;;10452160;28;20867;-85
2022/05/17 22:23:10;;;;;;;26.30;22.00;;;;;;;;;;10455224;28;20822;-83
2022/05/17 22:28:13;;;;;;;23.57;21.07;;;;;;;;;;10451647;28;20678;-85
2022/05/17 22:33:15;;;;;;;24.75;21.30;;;;;;;;;;10449238;28;20702;-84
2022/05/17 22:38:17;;;;;;;26.55;21.15;;;;;;;;;;10453925;28;20471;-84
2022/05/17 22:43:20;;;;;;;24.60;19.75;;;;;;;;;;10461884;28;20433;-84
2022/05/17 22:48:22;;;;;;;24.17;20.77;;;;;;;;;;10459098;28;20402;-83
2022/05/17 22:53:24;;;;;;;25.58;20.45;;;;;;;;;;10461139;28;20418;-83
2022/05/17 22:58:27;;;;;;;23.35;20.55;;;;;;;;;;10462279;28;20486;-85
2022/05/17 23:03:29;;;;;;;24.60;21.85;;;;;;;;;;10461418;28;20475;-85
2022/05/17 23:08:31;;;;;;;24.77;22.17;;;;;;;;;;10460186;28;20485;-85
2022/05/17 23:13:34;;;;;;;26.27;21.95;;;;;;;;;;10460483;28;20512;-85
2022/05/17 23:18:36;;;;;;;23.97;21.27;;;;;;;;;;10461915;28;20483;-85
2022/05/17 23:23:38;;;;;;;26.97;22.13;;;;;;;;;;10458205;28;20898;-85
2022/05/17 23:28:42;;;;;;;27.75;23.00;;;;;;;;;;10460950;28;20398;-85
2022/05/17 23:33:46;;;;;;;25.75;22.75;;;;;;;;;;10460640;28;20468;-85
2022/05/17 23:38:48;;;;;;;26.27;22.97;;;;;;;;;;10459824;28;20431;-85
2022/05/17 23:43:53;;;;;;;28.17;23.37;;;;;;;;;;10459221;28;20730;-84
2022/05/17 23:48:55;;;;;;;28.83;25.63;;;;;;;;;;10456290;28;20408;-85
2022/05/17 23:53:57;;;;;;;30.83;27.27;;;;;;;;;;10460794;28;20510;-85
2022/05/17 23:59:00;;;;;;;35.83;30.30;;;;;;;;;;10470361;28;20754;-85
